createdAt,value
2022-07-29T00:02:13.856Z,68.11
2022-07-29T00:06:16.518Z,68.17
2022-07-29T00:10:18.815Z,68.21
2022-07-29T00:14:21.112Z,68.48
2022-07-29T00:18:23.216Z,68.46
2022-07-29T00:22:25.327Z,68.44
2022-07-29T00:26:32.121Z,68.77
2022-07-29T00:30:34.285Z,68.75
2022-07-29T00:34:54.952Z,68.82
2022-07-29T00:38:57.040Z,68.87
2022-07-29T00:42:59.229Z,68.71
2022-07-29T00:47:01.641Z,68.75
2022-07-29T00:51:05.145Z,69.09
2022-07-29T00:55:10.236Z,69.24
2022-07-29T00:59:12.303Z,69.30
2022-07-29T01:03:14.396Z,69.47
2022-07-29T01:07:17.962Z,69.44
2022-07-29T01:11:20.807Z,69.56
2022-07-29T01:15:23.557Z,70.09
2022-07-29T01:19:35.204Z,70.09
2022-07-29T01:23:37.184Z,69.91
2022-07-29T01:27:47.951Z,69.95
2022-07-29T01:32:02.662Z,69.77
2022-07-29T01:36:11.448Z,69.88
2022-07-29T01:40:32.221Z,69.96
2022-07-29T01:44:40.560Z,70.14
2022-07-29T01:49:01.159Z,70.01
2022-07-29T01:53:07.542Z,70.47
2022-07-29T01:57:14.228Z,70.64
2022-07-29T02:01:17.132Z,70.81
2022-07-29T02:05:22.737Z,70.45
2022-07-29T02:09:27.373Z,70.61
2022-07-29T02:13:31.023Z,70.79
2022-07-29T02:17:46.581Z,70.80
2022-07-29T02:21:51.341Z,70.68
2022-07-29T02:25:56.634Z,71.10
2022-07-29T02:30:01.300Z,71.51
2022-07-29T02:34:07.702Z,71.57
2022-07-29T02:38:34.348Z,71.63
2022-07-29T02:42:38.062Z,71.94
2022-07-29T02:46:51.692Z,71.93
2022-07-29T02:51:05.276Z,72.02
2022-07-29T02:55:38.514Z,72.06
2022-07-29T02:59:43.626Z,71.92
2022-07-29T03:03:47.001Z,71.98
2022-07-29T03:08:03.462Z,72.07
2022-07-29T03:12:06.646Z,72.20
2022-07-29T03:16:10.159Z,72.31
2022-07-29T03:20:13.480Z,72.49
2022-07-29T03:24:29.559Z,72.30
2022-07-29T03:28:31.812Z,72.30
2022-07-29T03:32:34.289Z,72.36
2022-07-29T03:36:36.426Z,72.50
2022-07-29T03:40:52.229Z,72.96
2022-07-29T03:44:55.972Z,72.72
2022-07-29T03:49:02.051Z,72.58
2022-07-29T03:53:04.768Z,72.60
2022-07-29T03:57:10.637Z,72.65
2022-07-29T04:01:13.558Z,72.87
2022-07-29T04:05:16.928Z,72.87
2022-07-29T04:09:19.121Z,73.02
2022-07-29T04:13:21.542Z,73.06
2022-07-29T04:17:23.657Z,73.01
2022-07-29T04:21:26.358Z,73.09
2022-07-29T04:25:28.521Z,73.14
2022-07-29T04:29:30.646Z,72.90
2022-07-29T04:33:32.760Z,72.72
2022-07-29T04:37:34.810Z,72.34
2022-07-29T04:41:37.623Z,71.81
2022-07-29T04:45:40.133Z,71.44
2022-07-29T04:49:42.253Z,70.65
2022-07-29T04:53:44.453Z,70.37
2022-07-29T04:57:46.718Z,69.87
2022-07-29T05:01:48.975Z,69.16
2022-07-29T05:05:51.290Z,68.33
2022-07-29T05:09:53.763Z,67.72
2022-07-29T05:13:55.830Z,66.56
2022-07-29T05:17:57.970Z,66.25
2022-07-29T05:22:00.612Z,65.92
2022-07-29T05:26:02.729Z,65.69
2022-07-29T05:30:05.309Z,65.42
2022-07-29T05:34:07.461Z,65.38
2022-07-29T05:38:09.581Z,65.28
2022-07-29T05:42:11.781Z,65.36
2022-07-29T05:46:14.686Z,64.87
2022-07-29T05:50:17.295Z,64.91
2022-07-29T05:54:19.444Z,64.58
2022-07-29T05:58:21.782Z,64.63
2022-07-29T06:02:23.910Z,64.48
2022-07-29T06:06:26.022Z,64.46
2022-07-29T06:10:28.220Z,64.67
2022-07-29T06:14:30.593Z,64.25
2022-07-29T06:18:32.662Z,64.34
2022-07-29T06:22:34.758Z,64.34
2022-07-29T06:26:39.737Z,64.39
2022-07-29T06:30:42.170Z,64.60
2022-07-29T06:34:44.245Z,64.60
2022-07-29T06:38:52.106Z,64.37
2022-07-29T06:42:54.537Z,64.22
2022-07-29T06:46:56.920Z,63.94
2022-07-29T06:50:59.485Z,63.61
2022-07-29T06:55:01.576Z,63.55
2022-07-29T06:59:04.997Z,63.43
2022-07-29T07:03:07.268Z,63.11
2022-07-29T07:07:09.353Z,62.79
2022-07-29T07:11:11.894Z,62.66
2022-07-29T07:15:13.980Z,62.46
2022-07-29T07:19:16.058Z,62.06
2022-07-29T07:23:18.184Z,61.60
2022-07-29T07:27:20.351Z,60.98
2022-07-29T07:31:22.980Z,60.52
2022-07-29T07:35:25.135Z,59.70
2022-07-29T07:39:27.237Z,59.08
2022-07-29T07:43:29.268Z,58.02
2022-07-29T07:47:31.387Z,57.50
2022-07-29T07:51:36.264Z,56.01
2022-07-29T07:56:13.066Z,55.24
2022-07-29T08:00:05.801Z,54.34
2022-07-29T08:04:14.355Z,53.58
2022-07-29T08:08:16.700Z,52.97
2022-07-29T08:12:20.362Z,52.25
2022-07-29T08:16:22.986Z,52.08
2022-07-29T08:20:25.479Z,52.09
2022-07-29T08:24:46.158Z,51.52
2022-07-29T08:28:50.939Z,51.17
2022-07-29T08:32:55.231Z,50.10
2022-07-29T08:36:58.228Z,49.91
2022-07-29T08:41:03.321Z,49.64
2022-07-29T08:45:06.022Z,49.57
2022-07-29T08:49:08.218Z,48.64
2022-07-29T08:53:15.807Z,48.38
2022-07-29T08:57:19.109Z,48.22
2022-07-29T09:01:36.352Z,48.04
2022-07-29T09:05:48.246Z,48.06
2022-07-29T09:09:50.796Z,47.74
2022-07-29T09:13:53.072Z,47.38
2022-07-29T09:17:57.130Z,47.42
2022-07-29T09:22:03.143Z,47.27
2022-07-29T09:26:07.092Z,46.84
2022-07-29T09:30:14.988Z,46.49
2022-07-29T09:34:31.101Z,46.57
2022-07-29T09:38:34.357Z,46.80
2022-07-29T09:42:36.694Z,46.56
2022-07-29T09:46:38.874Z,45.99
2022-07-29T09:50:42.207Z,45.72
2022-07-29T09:54:45.507Z,45.30
2022-07-29T09:58:47.745Z,44.93
2022-07-29T10:02:50.018Z,44.63
2022-07-29T10:07:04.495Z,44.02
2022-07-29T10:11:17.331Z,44.22
2022-07-29T10:15:19.696Z,44.72
2022-07-29T10:19:22.013Z,44.76
2022-07-29T10:23:24.822Z,44.33
2022-07-29T10:27:27.087Z,43.93
2022-07-29T10:31:58.952Z,43.38
2022-07-29T10:36:33.362Z,43.14
2022-07-29T10:41:23.735Z,42.85
2022-07-29T10:45:26.008Z,42.16
2022-07-29T10:49:30.737Z,41.94
2022-07-29T10:53:54.154Z,42.00
2022-07-29T10:58:12.708Z,41.70
2022-07-29T11:02:42.150Z,41.51
2022-07-29T11:07:11.159Z,41.28
2022-07-29T11:11:19.901Z,41.35
2022-07-29T11:15:24.951Z,41.92
2022-07-29T11:19:30.735Z,41.71
2022-07-29T11:23:37.533Z,41.37
2022-07-29T11:27:40.143Z,41.17
2022-07-29T11:31:48.900Z,41.53
2022-07-29T11:36:16.760Z,41.17
2022-07-29T11:40:19.997Z,41.37
2022-07-29T11:45:40.356Z,41.11
2022-07-29T11:49:32.014Z,41.25
2022-07-29T11:53:36.419Z,41.49
2022-07-29T11:57:46.207Z,40.98
2022-07-29T12:02:36.786Z,40.75
2022-07-29T12:06:28.776Z,40.22
2022-07-29T12:10:32.890Z,39.80
2022-07-29T12:14:35.954Z,40.41
2022-07-29T12:18:38.275Z,40.45
2022-07-29T12:22:42.506Z,40.01
2022-07-29T12:26:56.247Z,40.05
2022-07-29T12:30:59.194Z,39.64
2022-07-29T12:35:08.462Z,39.78
2022-07-29T12:39:12.061Z,40.01
2022-07-29T12:43:25.335Z,40.13
2022-07-29T12:47:28.306Z,40.15
2022-07-29T12:51:33.647Z,40.53
2022-07-29T12:55:44.940Z,40.38
2022-07-29T13:00:02.251Z,40.58
2022-07-29T13:04:05.091Z,40.85
2022-07-29T13:08:22.750Z,40.70
2022-07-29T13:12:25.359Z,40.28
2022-07-29T13:16:28.352Z,40.04
2022-07-29T13:20:31.162Z,39.99
2022-07-29T13:24:34.080Z,39.91
2022-07-29T13:28:36.593Z,39.94
2022-07-29T13:32:38.997Z,39.90
2022-07-29T13:36:41.742Z,39.26
2022-07-29T13:40:46.585Z,39.61
2022-07-29T13:44:54.391Z,39.97
2022-07-29T13:48:56.703Z,39.35
2022-07-29T13:52:59.931Z,39.63
2022-07-29T13:57:02.233Z,39.63
2022-07-29T14:01:04.727Z,39.89
2022-07-29T14:05:08.810Z,39.46
2022-07-29T14:09:11.287Z,39.48
2022-07-29T14:13:24.512Z,39.70
2022-07-29T14:17:27.850Z,39.44
2022-07-29T14:21:31.250Z,39.51
2022-07-29T14:25:35.942Z,39.51
2022-07-29T14:29:41.842Z,39.28
2022-07-29T14:33:46.284Z,39.30
2022-07-29T14:37:51.711Z,38.83
2022-07-29T14:41:54.082Z,38.52
2022-07-29T14:46:01.984Z,38.08
2022-07-29T14:50:07.768Z,38.14
2022-07-29T14:54:10.062Z,37.87
2022-07-29T14:58:16.393Z,37.66
2022-07-29T15:02:19.057Z,37.04
2022-07-29T15:06:21.408Z,37.05
2022-07-29T15:10:24.684Z,36.94
2022-07-29T15:14:27.988Z,36.76
2022-07-29T15:18:30.645Z,36.51
2022-07-29T15:22:34.955Z,36.39
2022-07-29T15:26:37.253Z,36.37
2022-07-29T15:30:42.540Z,36.65
2022-07-29T15:34:44.727Z,37.03
2022-07-29T15:38:46.923Z,37.06
2022-07-29T15:42:49.169Z,36.87
2022-07-29T15:47:03.438Z,36.93
2022-07-29T15:51:05.985Z,37.11
2022-07-29T15:55:09.345Z,36.98
2022-07-29T15:59:11.603Z,37.22
2022-07-29T16:03:25.004Z,37.24
2022-07-29T16:07:31.395Z,37.26
2022-07-29T16:11:35.741Z,37.85
2022-07-29T16:15:37.930Z,37.79
2022-07-29T16:19:40.250Z,37.68
2022-07-29T16:23:46.181Z,36.99
2022-07-29T16:27:55.942Z,37.26
2022-07-29T16:32:02.548Z,37.66
2022-07-29T16:36:05.641Z,37.67
2022-07-29T16:40:16.285Z,37.37
2022-07-29T16:44:18.456Z,37.51
2022-07-29T16:48:20.643Z,37.41
2022-07-29T16:52:22.839Z,37.92
2022-07-29T16:56:24.965Z,37.94
2022-07-29T17:00:31.807Z,38.14
2022-07-29T17:04:37.285Z,38.38
2022-07-29T17:08:40.978Z,38.60
2022-07-29T17:12:43.698Z,38.71
2022-07-29T17:16:51.683Z,39.09
2022-07-29T17:21:03.304Z,39.28
2022-07-29T17:25:07.030Z,39.33
2022-07-29T17:29:11.688Z,39.57
2022-07-29T17:33:13.831Z,39.77
2022-07-29T17:37:16.080Z,39.91
2022-07-29T17:41:18.523Z,40.06
2022-07-29T17:45:20.877Z,40.42
2022-07-29T17:49:27.758Z,40.57
2022-07-29T17:53:30.284Z,40.93
2022-07-29T17:57:41.961Z,41.48
2022-07-29T18:01:44.166Z,41.89
2022-07-29T18:05:46.844Z,42.05
2022-07-29T18:09:49.005Z,42.34
2022-07-29T18:13:51.788Z,42.66
2022-07-29T18:17:57.362Z,43.08
2022-07-29T18:22:05.440Z,43.33
2022-07-29T18:26:09.077Z,43.88
2022-07-29T18:30:11.256Z,44.36
2022-07-29T18:34:13.350Z,44.84
2022-07-29T18:38:15.557Z,45.13
2022-07-29T18:42:17.837Z,45.64
2022-07-29T18:46:20.008Z,46.08
2022-07-29T18:50:29.378Z,46.40
2022-07-29T18:54:31.894Z,46.58
2022-07-29T18:58:34.007Z,46.69
2022-07-29T19:02:37.762Z,47.02
2022-07-29T19:06:41.241Z,47.24
2022-07-29T19:10:43.740Z,47.40
2022-07-29T19:14:45.970Z,47.43
2022-07-29T19:18:48.142Z,47.73
2022-07-29T19:22:50.544Z,48.04
2022-07-29T19:26:52.754Z,48.20
2022-07-29T19:30:54.971Z,48.46
2022-07-29T19:35:15.568Z,48.40
2022-07-29T19:39:17.697Z,48.45
2022-07-29T19:43:50.479Z,48.69
2022-07-29T19:48:00.653Z,48.79
2022-07-29T19:52:03.606Z,49.11
2022-07-29T19:56:05.912Z,49.45
2022-07-29T20:00:12.374Z,49.63
2022-07-29T20:04:14.713Z,49.93
2022-07-29T20:08:17.788Z,50.12
2022-07-29T20:12:21.559Z,50.20
2022-07-29T20:16:23.711Z,50.53
2022-07-29T20:20:29.475Z,50.49
2022-07-29T20:24:31.617Z,50.76
2022-07-29T20:28:33.911Z,50.87
2022-07-29T20:32:36.031Z,50.93
2022-07-29T20:36:38.151Z,51.23
2022-07-29T20:40:40.310Z,51.45
2022-07-29T20:44:42.589Z,51.52
2022-07-29T20:48:45.380Z,51.68
2022-07-29T20:52:47.642Z,52.00
2022-07-29T20:56:49.862Z,52.05
2022-07-29T21:00:52.138Z,52.21
2022-07-29T21:04:54.403Z,52.39
2022-07-29T21:08:57.953Z,52.49
2022-07-29T21:13:00.677Z,52.60
2022-07-29T21:17:05.827Z,52.90
2022-07-29T21:21:08.051Z,53.07
2022-07-29T21:25:11.242Z,53.13
2022-07-29T21:29:13.392Z,53.15
2022-07-29T21:33:15.589Z,53.47
2022-07-29T21:37:17.960Z,53.67
2022-07-29T21:41:21.488Z,53.74
2022-07-29T21:45:23.705Z,54.04
2022-07-29T21:49:25.823Z,54.01
2022-07-29T21:53:28.215Z,54.21
2022-07-29T21:57:30.344Z,54.43
2022-07-29T22:01:39.044Z,54.57
2022-07-29T22:05:41.787Z,54.78
2022-07-29T22:09:44.206Z,54.86
2022-07-29T22:13:46.425Z,54.96
2022-07-29T22:17:48.755Z,55.21
2022-07-29T22:21:50.883Z,55.11
2022-07-29T22:25:54.111Z,55.18
2022-07-29T22:29:56.250Z,55.33
2022-07-29T22:33:58.399Z,55.53
2022-07-29T22:38:00.448Z,55.60
2022-07-29T22:42:02.542Z,55.68
2022-07-29T22:46:05.084Z,55.92
2022-07-29T22:50:07.599Z,56.06
2022-07-29T22:54:09.686Z,56.02
2022-07-29T22:58:12.090Z,56.18
2022-07-29T23:02:14.213Z,56.30
2022-07-29T23:06:16.622Z,56.43
2022-07-29T23:10:18.779Z,56.46
2022-07-29T23:14:20.902Z,56.75
2022-07-29T23:18:23.063Z,56.78
2022-07-29T23:22:25.155Z,56.89
2022-07-29T23:26:27.752Z,57.10
2022-07-29T23:30:30.489Z,57.27
2022-07-29T23:34:32.630Z,57.34
2022-07-29T23:38:34.850Z,57.45
2022-07-29T23:42:37.927Z,57.81
2022-07-29T23:46:40.227Z,57.94
2022-07-29T23:50:42.427Z,57.99
2022-07-29T23:54:44.583Z,58.28
2022-07-29T23:58:46.646Z,58.37
